Time;durP1;ratioP1;P1;durP2;ratioP2;P2;SDS_P1;SDS_P2;PMS_P1;PMS_P2;Temp;Humidity;BMP_temperature;BMP_pressure;BME280_temperature;BME280_humidity;BME280_pressure;Samples;Min_cycle;Max_cycle;Signal;HPM_P1;HPM_P2
2022/08/03 00:00:17;;;;;;;1.92;1.82;;;21.40;52.40;;;;;;960661;145;27304;-77
2022/08/03 00:02:44;;;;;;;1.60;1.50;;;21.30;52.50;;;;;;959950;145;27390;-77
2022/08/03 00:05:10;;;;;;;2.65;2.20;;;21.30;52.50;;;;;;960503;145;27342;-77
2022/08/03 00:07:37;;;;;;;1.52;1.42;;;21.30;52.80;;;;;;960182;145;27343;-77
2022/08/03 00:10:03;;;;;;;1.70;1.60;;;21.20;52.90;;;;;;958027;145;27311;-77
2022/08/03 00:12:30;;;;;;;1.65;1.55;;;21.20;53.00;;;;;;960704;145;27271;-77
2022/08/03 00:14:57;;;;;;;1.77;1.67;;;21.20;53.10;;;;;;960785;145;27334;-77
2022/08/03 00:17:23;;;;;;;2.30;2.15;;;21.20;53.30;;;;;;961905;145;27337;-77
2022/08/03 00:19:50;;;;;;;1.92;1.82;;;21.20;53.50;;;;;;962079;145;27346;-77
2022/08/03 00:22:16;;;;;;;2.75;2.02;;;21.20;53.60;;;;;;958569;145;27256;-77
2022/08/03 00:24:43;;;;;;;1.80;1.70;;;21.10;53.70;;;;;;960299;145;27415;-77
2022/08/03 00:27:09;;;;;;;3.02;2.05;;;21.10;53.80;;;;;;962200;145;27314;-77
2022/08/03 00:29:36;;;;;;;1.60;1.42;;;21.10;53.90;;;;;;961470;145;27412;-77
2022/08/03 00:32:03;;;;;;;1.80;1.70;;;21.10;54.00;;;;;;960360;145;27354;-77
2022/08/03 00:34:30;;;;;;;2.00;1.80;;;21.10;54.10;;;;;;959935;145;27411;-77
2022/08/03 00:36:56;;;;;;;1.82;1.72;;;21.10;54.20;;;;;;960664;145;27260;-77
2022/08/03 00:39:22;;;;;;;2.08;1.87;;;21.10;54.30;;;;;;961121;145;27283;-78
2022/08/03 00:41:49;;;;;;;1.80;1.70;;;21.00;54.30;;;;;;959561;145;28837;-77
2022/08/03 00:44:16;;;;;;;2.02;1.92;;;21.10;54.40;;;;;;959290;145;27444;-77
2022/08/03 00:46:42;;;;;;;2.00;1.90;;;21.00;54.50;;;;;;958993;148;28530;-77
2022/08/03 00:49:09;;;;;;;3.60;1.90;;;21.00;54.60;;;;;;957680;148;27274;-77
2022/08/03 00:51:35;;;;;;;2.10;1.90;;;21.00;54.60;;;;;;932525;152;27846;-77
2022/08/03 00:54:02;;;;;;;2.20;1.70;;;21.00;54.70;;;;;;915887;152;27448;-77
2022/08/03 00:56:29;;;;;;;2.05;1.95;;;21.00;54.80;;;;;;932771;149;27439;-77
2022/08/03 00:58:55;;;;;;;1.72;1.62;;;21.00;54.80;;;;;;923357;155;27467;-77
2022/08/03 01:01:22;;;;;;;1.95;1.80;;;21.00;54.80;;;;;;914282;155;27374;-77
2022/08/03 01:03:48;;;;;;;1.77;1.67;;;21.00;54.90;;;;;;915864;152;27483;-77
2022/08/03 01:06:24;;;;;;;2.05;1.95;;;20.90;55.00;;;;;;931328;149;27340;-77
2022/08/03 01:09:03;;;;;;;1.70;1.60;;;20.90;55.10;;;;;;924500;152;27393;-77
2022/08/03 01:11:38;;;;;;;2.42;2.02;;;21.00;55.20;;;;;;914620;155;27424;-77
2022/08/03 01:14:19;;;;;;;2.20;2.00;;;20.90;55.20;;;;;;866509;163;27620;-77
2022/08/03 01:17:07;;;;;;;1.95;1.72;;;20.90;55.30;;;;;;903866;148;27463;-77
2022/08/03 01:19:55;;;;;;;1.95;1.85;;;20.90;55.40;;;;;;955730;148;27319;-79
2022/08/03 01:22:39;;;;;;;1.80;1.70;;;20.90;55.50;;;;;;956828;148;27400;-80
2022/08/03 01:25:28;;;;;;;1.70;1.60;;;20.80;55.50;;;;;;955804;148;27341;-78
2022/08/03 01:27:57;;;;;;;1.95;1.85;;;20.80;55.60;;;;;;956414;148;27435;-78
2022/08/03 01:30:23;;;;;;;1.87;1.77;;;20.70;55.70;;;;;;931799;152;27332;-78
2022/08/03 01:33:05;;;;;;;2.12;1.85;;;20.70;55.90;;;;;;914829;155;27381;-78
2022/08/03 01:35:37;;;;;;;1.80;1.70;;;20.70;56.00;;;;;;935306;152;27459;-78
2022/08/03 01:38:04;;;;;;;1.98;1.87;;;20.60;56.00;;;;;;923019;153;27474;-78
2022/08/03 01:40:30;;;;;;;2.60;1.95;;;20.60;56.70;;;;;;954256;148;27388;-78
2022/08/03 01:42:57;;;;;;;2.37;1.70;;;20.60;56.20;;;;;;956508;148;27420;-78
2022/08/03 01:45:23;;;;;;;2.80;1.87;;;20.60;56.20;;;;;;957070;147;27342;-78
2022/08/03 01:47:50;;;;;;;1.80;1.70;;;20.50;56.30;;;;;;956146;148;27364;-78
2022/08/03 01:50:16;;;;;;;1.80;1.70;;;20.50;56.50;;;;;;921100;153;27418;-78
2022/08/03 01:52:43;;;;;;;2.08;1.90;;;20.50;56.60;;;;;;957106;148;27293;-78
2022/08/03 01:55:10;;;;;;;2.15;2.02;;;20.50;56.70;;;;;;955138;148;27412;-78
2022/08/03 01:57:36;;;;;;;5.15;2.10;;;20.50;56.90;;;;;;957151;148;27287;-78
2022/08/03 02:00:03;;;;;;;2.15;1.95;;;20.40;56.90;;;;;;955913;148;27310;-78
2022/08/03 02:02:29;;;;;;;1.77;1.67;;;20.40;57.00;;;;;;956048;148;27350;-78
2022/08/03 02:04:56;;;;;;;1.95;1.85;;;20.40;57.10;;;;;;957796;148;27443;-78
2022/08/03 02:07:23;;;;;;;3.02;2.02;;;20.40;57.10;;;;;;923657;155;27449;-79
2022/08/03 02:09:49;;;;;;;2.33;2.12;;;20.40;57.20;;;;;;918025;155;27352;-78
2022/08/03 02:12:16;;;;;;;2.00;1.90;;;20.40;57.40;;;;;;917958;152;27747;-78
2022/08/03 02:14:42;;;;;;;1.60;1.50;;;20.40;57.40;;;;;;920690;154;27448;-79
2022/08/03 02:17:09;;;;;;;2.00;1.90;;;20.30;57.40;;;;;;956452;148;27367;-78
2022/08/03 02:19:36;;;;;;;3.67;1.92;;;20.30;57.40;;;;;;957043;148;27289;-78
2022/08/03 02:22:02;;;;;;;3.75;1.60;;;20.30;57.60;;;;;;957718;148;27318;-78
2022/08/03 02:24:29;;;;;;;2.00;1.90;;;20.20;57.60;;;;;;956277;148;27344;-78
2022/08/03 02:26:55;;;;;;;2.00;1.90;;;20.20;57.70;;;;;;956942;148;27445;-78
2022/08/03 02:29:22;;;;;;;1.90;1.80;;;20.20;57.80;;;;;;956157;148;27500;-79
2022/08/03 02:31:48;;;;;;;2.20;2.00;;;20.20;57.90;;;;;;923270;153;28617;-79
2022/08/03 02:34:15;;;;;;;2.10;1.95;;;20.20;58.00;;;;;;933218;152;27399;-78
2022/08/03 02:36:42;;;;;;;2.55;2.35;;;20.10;58.00;;;;;;915451;155;27306;-78
2022/08/03 02:39:08;;;;;;;2.12;2.02;;;20.10;58.10;;;;;;916581;152;27360;-78
2022/08/03 02:41:38;;;;;;;1.85;1.75;;;20.10;58.20;;;;;;928394;152;27484;-78
2022/08/03 02:44:04;;;;;;;2.20;2.00;;;20.00;58.20;;;;;;913869;155;27388;-78
2022/08/03 02:46:31;;;;;;;2.00;1.90;;;20.00;58.20;;;;;;937167;148;27391;-78
2022/08/03 02:48:58;;;;;;;2.02;1.87;;;20.00;58.30;;;;;;938441;148;27343;-78
2022/08/03 02:51:25;;;;;;;2.67;2.05;;;20.00;58.40;;;;;;938192;148;27412;-78
2022/08/03 02:53:51;;;;;;;2.62;2.10;;;19.90;58.50;;;;;;920875;151;27325;-78
2022/08/03 02:56:20;;;;;;;2.62;2.20;;;19.90;58.60;;;;;;962017;145;27440;-77
2022/08/03 02:58:44;;;;;;;2.20;2.05;;;19.90;58.80;;;;;;959689;145;27310;-76
2022/08/03 03:01:11;;;;;;;2.33;2.12;;;19.90;59.00;;;;;;961443;145;27340;-77
2022/08/03 03:03:37;;;;;;;2.50;2.30;;;19.80;59.10;;;;;;960633;145;27409;-77
2022/08/03 03:06:04;;;;;;;2.77;2.10;;;19.80;59.20;;;;;;962396;145;27298;-78
2022/08/03 03:08:30;;;;;;;2.00;1.90;;;19.80;59.40;;;;;;959139;145;27445;-77
2022/08/03 03:10:57;;;;;;;2.27;2.08;;;19.80;59.50;;;;;;960353;145;27404;-77
2022/08/03 03:13:23;;;;;;;2.10;2.00;;;19.70;59.60;;;;;;958598;145;27307;-77
2022/08/03 03:15:50;;;;;;;2.42;2.20;;;19.80;59.80;;;;;;958866;145;27412;-76
2022/08/03 03:18:17;;;;;;;1.95;1.85;;;19.70;59.80;;;;;;961919;145;27335;-77
2022/08/03 03:20:43;;;;;;;3.35;2.00;;;19.70;59.80;;;;;;960036;145;27691;-77
2022/08/03 03:23:10;;;;;;;2.42;2.22;;;19.70;59.80;;;;;;959462;145;27900;-76
2022/08/03 03:25:36;;;;;;;2.08;1.98;;;19.70;60.00;;;;;;961230;145;27403;-76
2022/08/03 03:28:03;;;;;;;2.22;2.02;;;19.60;60.10;;;;;;960901;145;27296;-76
2022/08/03 03:30:30;;;;;;;2.47;2.27;;;19.60;60.50;;;;;;959695;145;27437;-76
2022/08/03 03:32:56;;;;;;;2.60;2.40;;;19.60;60.40;;;;;;961448;145;27334;-78
2022/08/03 03:35:23;;;;;;;2.35;2.15;;;19.60;60.70;;;;;;960394;145;27359;-77
2022/08/03 03:37:49;;;;;;;2.65;2.42;;;19.60;60.80;;;;;;959755;145;27286;-76
2022/08/03 03:40:16;;;;;;;3.72;3.42;;;19.50;60.80;;;;;;958439;145;27372;-76
2022/08/03 03:42:43;;;;;;;3.00;2.80;;;19.60;61.00;;;;;;959983;145;27317;-76
2022/08/03 03:45:09;;;;;;;3.75;3.22;;;19.50;61.10;;;;;;961292;145;27387;-77
2022/08/03 03:47:36;;;;;;;4.00;3.60;;;19.50;61.30;;;;;;961145;145;27390;-78
2022/08/03 03:50:05;;;;;;;3.72;3.42;;;19.50;61.40;;;;;;959746;145;28226;-76
2022/08/03 03:52:32;;;;;;;4.70;3.60;;;19.50;61.60;;;;;;959382;145;27396;-77
2022/08/03 03:54:58;;;;;;;3.75;3.33;;;19.50;61.70;;;;;;959699;145;27420;-77
2022/08/03 03:57:25;;;;;;;4.12;3.22;;;19.40;61.70;;;;;;960311;145;27367;-77
2022/08/03 03:59:52;;;;;;;3.98;3.58;;;19.40;61.80;;;;;;959029;145;27442;-76
2022/08/03 04:02:18;;;;;;;3.87;3.50;;;19.40;62.00;;;;;;963245;145;27752;-76
2022/08/03 04:13:06;;;;;;;3.05;2.67;;;19.30;62.20;;;;;;959942;145;27331;-76
2022/08/03 04:15:32;;;;;;;3.75;3.33;;;19.30;62.30;;;;;;957935;145;27370;-76
2022/08/03 04:17:59;;;;;;;3.30;3.00;;;19.30;62.60;;;;;;959165;145;27326;-76
2022/08/03 04:20:28;;;;;;;3.67;3.00;;;19.20;62.80;;;;;;960808;145;27760;-76
2022/08/03 04:22:55;;;;;;;4.72;2.77;;;19.20;62.90;;;;;;958251;145;27335;-76
2022/08/03 04:25:21;;;;;;;3.87;2.70;;;19.30;63.00;;;;;;959536;145;27362;-76
2022/08/03 04:27:48;;;;;;;4.12;2.72;;;19.20;63.10;;;;;;960558;145;27282;-76
2022/08/03 04:30:14;;;;;;;2.67;2.47;;;19.20;63.20;;;;;;958476;145;27322;-76
2022/08/03 04:32:42;;;;;;;2.52;2.33;;;19.20;63.40;;;;;;961410;145;27359;-76
2022/08/03 04:35:07;;;;;;;2.83;2.47;;;19.30;63.50;;;;;;959629;145;27288;-76
2022/08/03 04:37:46;;;;;;;3.70;2.90;;;19.30;63.60;;;;;;959957;145;27313;-76
2022/08/03 04:40:18;;;;;;;2.35;2.15;;;19.30;63.70;;;;;;960529;145;27420;-76
2022/08/03 04:42:45;;;;;;;2.67;2.47;;;19.30;63.60;;;;;;961713;145;27384;-77
2022/08/03 04:45:11;;;;;;;3.40;2.40;;;19.40;63.80;;;;;;961272;145;27291;-76
2022/08/03 04:47:38;;;;;;;2.80;2.60;;;19.40;63.90;;;;;;961175;145;27755;-76
2022/08/03 04:50:04;;;;;;;2.70;2.50;;;19.50;63.90;;;;;;961759;145;27310;-76
2022/08/03 04:52:31;;;;;;;2.80;2.60;;;19.50;63.90;;;;;;958947;145;27690;-76
2022/08/03 04:54:58;;;;;;;2.60;2.50;;;19.50;63.90;;;;;;962190;145;27363;-77
2022/08/03 04:57:24;;;;;;;3.35;2.65;;;19.60;63.90;;;;;;958519;145;27306;-76
2022/08/03 04:59:53;;;;;;;2.52;2.33;;;19.70;63.90;;;;;;960885;145;27302;-76
2022/08/03 05:02:17;;;;;;;2.60;2.40;;;19.70;64.20;;;;;;959361;145;27301;-76
2022/08/03 05:04:45;;;;;;;3.17;2.50;;;19.90;64.20;;;;;;959483;145;27306;-76
2022/08/03 05:07:10;;;;;;;2.58;2.37;;;20.00;64.70;;;;;;959134;145;27360;-76
2022/08/03 05:09:37;;;;;;;2.80;2.40;;;20.40;65.40;;;;;;960730;145;28141;-76
2022/08/03 05:12:04;;;;;;;2.37;2.15;;;20.70;66.10;;;;;;960163;145;27300;-77
2022/08/03 05:14:30;;;;;;;4.40;1.92;;;21.30;66.50;;;;;;959622;145;27676;-76
2022/08/03 05:16:57;;;;;;;2.58;2.37;;;21.90;66.50;;;;;;957641;145;27363;-76
2022/08/03 05:19:23;;;;;;;2.87;2.00;;;22.60;66.10;;;;;;962151;145;27435;-76
2022/08/03 05:21:50;;;;;;;3.72;2.00;;;23.30;65.10;;;;;;959836;145;27411;-77
2022/08/03 05:24:17;;;;;;;3.35;2.00;;;24.10;64.00;;;;;;961128;145;27379;-77
2022/08/03 05:26:43;;;;;;;2.58;2.00;;;25.00;62.80;;;;;;961619;145;27424;-76
2022/08/03 05:29:10;;;;;;;2.35;2.10;;;25.80;61.60;;;;;;959104;145;27774;-77
2022/08/03 05:31:36;;;;;;;1.80;1.70;;;26.60;60.20;;;;;;959650;145;27356;-77
2022/08/03 05:34:03;;;;;;;2.20;2.05;;;27.40;59.10;;;;;;958931;145;27440;-77
2022/08/03 05:36:30;;;;;;;2.02;1.90;;;28.10;58.00;;;;;;960533;145;27351;-77
2022/08/03 05:38:56;;;;;;;2.15;1.90;;;28.80;56.80;;;;;;959488;145;27291;-76
2022/08/03 05:41:23;;;;;;;2.45;2.05;;;29.50;55.80;;;;;;959800;145;27324;-77
2022/08/03 05:43:49;;;;;;;2.02;1.80;;;30.10;54.80;;;;;;959514;145;27628;-78
2022/08/03 05:46:16;;;;;;;2.95;1.72;;;30.80;53.70;;;;;;958963;145;27331;-78
2022/08/03 05:48:42;;;;;;;1.85;1.60;;;31.40;52.70;;;;;;961166;145;27394;-77
2022/08/03 05:51:12;;;;;;;1.87;1.70;;;32.00;51.80;;;;;;959692;145;27268;-78
2022/08/03 05:53:36;;;;;;;2.60;2.12;;;32.50;50.90;;;;;;960589;145;27324;-77
2022/08/03 05:56:02;;;;;;;1.77;1.67;;;33.00;50.00;;;;;;959372;145;27292;-78
2022/08/03 05:58:29;;;;;;;2.65;1.80;;;33.60;49.40;;;;;;960787;145;27331;-77
2022/08/03 06:00:55;;;;;;;4.00;1.77;;;34.10;48.70;;;;;;961209;145;27826;-78
2022/08/03 06:03:22;;;;;;;1.90;1.70;;;34.60;47.90;;;;;;958057;145;26247;-78
2022/08/03 06:05:49;;;;;;;1.55;1.45;;;35.10;47.20;;;;;;961706;145;27323;-78
2022/08/03 06:08:15;;;;;;;1.60;1.50;;;35.70;46.60;;;;;;962579;145;26676;-79
2022/08/03 06:10:42;;;;;;;1.57;1.32;;;36.20;46.00;;;;;;961570;145;26567;-80
2022/08/03 06:13:08;;;;;;;1.70;1.60;;;36.60;45.10;;;;;;961233;145;26346;-78
2022/08/03 06:15:35;;;;;;;1.92;1.27;;;37.10;44.40;;;;;;960785;145;26148;-78
2022/08/03 06:18:02;;;;;;;1.60;1.50;;;37.60;43.90;;;;;;959952;145;26219;-78
2022/08/03 06:20:29;;;;;;;2.25;1.80;;;38.10;43.20;;;;;;960608;145;26320;-79
2022/08/03 06:22:55;;;;;;;2.42;1.60;;;38.60;42.40;;;;;;958984;145;26323;-80
2022/08/03 06:25:21;;;;;;;2.15;1.70;;;39.00;41.00;;;;;;961845;145;26241;-79
2022/08/03 06:27:48;;;;;;;2.05;1.60;;;39.40;40.70;;;;;;960132;145;26255;-79
2022/08/03 06:30:16;;;;;;;3.90;1.67;;;39.70;40.20;;;;;;960225;145;27418;-79
2022/08/03 06:32:41;;;;;;;1.65;1.55;;;39.90;39.30;;;;;;959145;145;26223;-79
2022/08/03 06:35:08;;;;;;;1.47;1.37;;;40.10;38.70;;;;;;958551;145;26234;-80
2022/08/03 06:37:46;;;;;;;1.70;1.60;;;40.30;38.30;;;;;;961849;145;26255;-79
2022/08/03 06:40:13;;;;;;;2.27;2.08;;;40.50;37.60;;;;;;960591;145;26321;-79
2022/08/03 06:42:39;;;;;;;2.62;1.98;;;40.70;37.50;;;;;;960849;145;26259;-80
2022/08/03 06:45:07;;;;;;;2.25;1.90;;;40.90;37.10;;;;;;961166;145;26335;-80
2022/08/03 06:47:33;;;;;;;1.50;1.40;;;41.10;37.00;;;;;;960338;145;26296;-80
2022/08/03 06:49:59;;;;;;;2.85;1.30;;;41.40;36.60;;;;;;961852;145;26414;-80
2022/08/03 06:52:26;;;;;;;1.98;1.30;;;41.60;36.00;;;;;;961308;145;26368;-80
2022/08/03 06:54:52;;;;;;;1.50;1.40;;;41.80;35.50;;;;;;959909;145;26262;-80
2022/08/03 06:57:19;;;;;;;1.65;1.55;;;42.00;35.10;;;;;;960083;145;26223;-80
2022/08/03 06:59:45;;;;;;;1.57;1.40;;;42.30;34.70;;;;;;960961;145;26202;-80
2022/08/03 07:02:12;;;;;;;1.50;1.40;;;42.60;34.30;;;;;;960361;145;26235;-80
2022/08/03 07:04:39;;;;;;;1.40;1.30;;;42.80;34.00;;;;;;960294;145;26274;-80
2022/08/03 07:07:05;;;;;;;1.37;1.25;;;43.10;33.70;;;;;;962009;145;26335;-80
2022/08/03 07:09:32;;;;;;;1.50;1.40;;;43.50;33.30;;;;;;960010;145;26319;-80
2022/08/03 07:12:01;;;;;;;1.67;1.37;;;43.80;33.00;;;;;;961037;145;26234;-80
2022/08/03 07:14:25;;;;;;;1.50;1.40;;;44.10;32.40;;;;;;957930;145;26267;-80
2022/08/03 07:16:52;;;;;;;1.30;1.20;;;44.40;32.10;;;;;;960907;145;26311;-80
2022/08/03 07:19:18;;;;;;;1.98;1.22;;;44.70;31.30;;;;;;961408;145;26278;-81
2022/08/03 07:21:46;;;;;;;2.30;1.20;;;45.00;30.90;;;;;;961557;145;26216;-81
2022/08/03 07:24:11;;;;;;;1.32;1.10;;;45.30;30.70;;;;;;960146;145;26247;-81
2022/08/03 07:26:38;;;;;;;1.25;1.15;;;45.60;30.30;;;;;;961988;145;26216;-77
2022/08/03 07:29:05;;;;;;;1.22;1.12;;;45.90;29.70;;;;;;961924;145;26246;-78
2022/08/03 07:31:31;;;;;;;0.93;0.90;;;46.30;29.30;;;;;;961661;145;26259;-77
2022/08/03 07:33:58;;;;;;;1.00;1.00;;;46.60;29.00;;;;;;960120;145;26192;-77
2022/08/03 07:36:25;;;;;;;2.30;1.15;;;47.00;28.80;;;;;;961115;145;26259;-77
2022/08/03 07:38:51;;;;;;;1.25;1.05;;;47.20;28.20;;;;;;961592;145;26247;-77
2022/08/03 07:41:17;;;;;;;6.60;1.12;;;47.50;27.80;;;;;;959887;145;26259;-77
2022/08/03 07:43:44;;;;;;;1.67;1.25;;;47.70;27.50;;;;;;960343;145;26299;-77
2022/08/03 07:46:11;;;;;;;1.87;1.30;;;47.90;27.30;;;;;;959452;145;26389;-78
2022/08/03 07:48:37;;;;;;;4.30;1.10;;;48.00;27.00;;;;;;960309;145;26574;-78
2022/08/03 07:51:04;;;;;;;1.27;0.78;;;48.30;26.90;;;;;;960315;145;26211;-77
2022/08/03 07:53:30;;;;;;;1.30;0.88;;;48.50;26.60;;;;;;958685;145;26537;-78
2022/08/03 07:55:57;;;;;;;2.27;1.10;;;48.70;26.40;;;;;;960387;145;26915;-77
2022/08/03 07:58:24;;;;;;;0.90;0.90;;;48.90;25.60;;;;;;961596;145;26247;-77
2022/08/03 08:00:51;;;;;;;1.27;0.95;;;49.10;25.80;;;;;;959262;145;26292;-77
2022/08/03 08:03:17;;;;;;;1.00;0.90;;;49.40;25.50;;;;;;958578;145;26218;-78
2022/08/03 08:05:43;;;;;;;0.95;0.90;;;49.70;25.20;;;;;;958240;145;26231;-77
2022/08/03 08:08:10;;;;;;;0.82;0.82;;;49.90;25.00;;;;;;961349;145;26279;-78
2022/08/03 08:10:37;;;;;;;2.02;1.02;;;50.20;24.80;;;;;;959826;145;26270;-78
2022/08/03 08:13:03;;;;;;;0.95;0.95;;;50.30;24.60;;;;;;960163;145;26183;-77
2022/08/03 08:15:30;;;;;;;5.47;1.10;;;50.50;24.40;;;;;;960085;145;26340;-78
2022/08/03 08:17:56;;;;;;;1.17;0.93;;;50.70;24.10;;;;;;959634;145;26320;-78
2022/08/03 08:20:23;;;;;;;0.80;0.80;;;50.80;24.00;;;;;;959238;145;26311;-78
2022/08/03 08:22:49;;;;;;;0.98;0.98;;;50.90;23.60;;;;;;959946;145;26263;-78
2022/08/03 08:25:16;;;;;;;0.90;0.90;;;51.00;23.50;;;;;;959895;145;26230;-78
2022/08/03 08:27:46;;;;;;;1.07;0.70;;;51.00;23.30;;;;;;959734;145;26255;-78
2022/08/03 08:30:12;;;;;;;0.57;0.57;;;51.00;23.20;;;;;;959354;145;26243;-78
2022/08/03 08:32:39;;;;;;;0.80;0.80;;;51.10;23.30;;;;;;960721;145;26255;-78
2022/08/03 08:35:06;;;;;;;1.10;1.10;;;51.10;23.00;;;;;;960661;145;26258;-78
2022/08/03 08:37:32;;;;;;;1.55;1.05;;;51.20;22.90;;;;;;960857;145;26597;-78
2022/08/03 08:39:59;;;;;;;0.80;0.80;;;51.20;22.80;;;;;;960093;145;26367;-78
2022/08/03 08:42:25;;;;;;;1.92;0.90;;;51.40;22.80;;;;;;960124;145;26214;-78
2022/08/03 08:44:52;;;;;;;2.85;0.88;;;51.50;22.60;;;;;;960625;145;26247;-78
2022/08/03 08:47:19;;;;;;;0.68;0.68;;;51.70;22.50;;;;;;961471;145;26248;-78
2022/08/03 08:49:45;;;;;;;0.57;0.57;;;51.80;22.40;;;;;;960459;145;26348;-78
2022/08/03 08:52:12;;;;;;;0.78;0.78;;;51.90;22.30;;;;;;959818;145;26264;-80
2022/08/03 08:54:39;;;;;;;1.17;1.10;;;52.00;22.00;;;;;;961582;145;26304;-80
2022/08/03 08:57:05;;;;;;;1.15;1.05;;;52.10;22.00;;;;;;960384;145;26337;-80
2022/08/03 08:59:32;;;;;;;0.65;0.65;;;52.20;22.00;;;;;;960257;145;26365;-80
2022/08/03 09:01:58;;;;;;;0.82;0.80;;;52.30;21.90;;;;;;959657;145;26331;-81
2022/08/03 09:04:25;;;;;;;1.92;1.10;;;52.40;21.70;;;;;;960531;145;26266;-80
2022/08/03 09:06:51;;;;;;;0.70;0.70;;;52.50;21.50;;;;;;961009;145;26268;-80
2022/08/03 09:09:18;;;;;;;0.62;0.62;;;52.70;21.50;;;;;;960953;145;26214;-80
2022/08/03 09:11:45;;;;;;;1.52;0.75;;;52.80;21.40;;;;;;961743;148;26247;-80
2022/08/03 09:14:11;;;;;;;0.82;0.70;;;52.70;21.20;;;;;;961242;145;26331;-80
2022/08/03 09:16:38;;;;;;;0.62;0.60;;;52.90;21.00;;;;;;960792;145;26312;-81
2022/08/03 09:19:11;;;;;;;0.72;0.72;;;52.90;21.50;;;;;;957299;145;26243;-80
2022/08/03 09:21:37;;;;;;;0.75;0.70;;;52.70;20.70;;;;;;958478;145;26309;-80
2022/08/03 09:24:03;;;;;;;0.50;0.50;;;52.80;20.90;;;;;;958934;145;26207;-80
2022/08/03 09:26:30;;;;;;;1.12;0.68;;;52.70;20.80;;;;;;961016;145;26254;-80
2022/08/03 09:28:57;;;;;;;0.47;0.47;;;52.80;20.70;;;;;;961373;145;26259;-80
2022/08/03 09:31:35;;;;;;;0.80;0.80;;;52.80;20.70;;;;;;960405;145;26292;-78
2022/08/03 09:34:07;;;;;;;0.62;0.62;;;52.90;20.60;;;;;;962209;145;26208;-79
2022/08/03 09:36:34;;;;;;;0.80;0.80;;;52.90;20.40;;;;;;961248;145;26261;-78
2022/08/03 09:39:06;;;;;;;1.02;0.90;;;52.80;20.20;;;;;;959680;145;26226;-78
2022/08/03 09:41:30;;;;;;;1.00;1.00;;;52.80;20.10;;;;;;959091;145;26234;-78
2022/08/03 09:43:56;;;;;;;0.75;0.75;;;52.50;20.00;;;;;;959316;145;26407;-78
2022/08/03 09:46:23;;;;;;;0.60;0.60;;;52.20;20.00;;;;;;960540;145;26468;-79
2022/08/03 09:48:50;;;;;;;0.95;0.95;;;51.90;20.00;;;;;;960394;145;26351;-79
2022/08/03 09:51:19;;;;;;;0.90;0.90;;;51.50;20.20;;;;;;959977;145;26381;-78
2022/08/03 09:53:43;;;;;;;1.25;0.72;;;51.20;20.30;;;;;;959417;145;26200;-78
2022/08/03 09:56:09;;;;;;;1.42;0.93;;;50.80;20.40;;;;;;960832;145;26189;-79
2022/08/03 09:58:36;;;;;;;0.80;0.80;;;50.70;20.50;;;;;;961330;145;26332;-79
2022/08/03 10:01:03;;;;;;;1.15;0.82;;;50.50;20.50;;;;;;956451;145;26227;-79
2022/08/03 10:03:29;;;;;;;0.65;0.65;;;50.50;20.60;;;;;;958763;145;26373;-79
2022/08/03 10:05:56;;;;;;;0.62;0.62;;;50.30;20.60;;;;;;960477;145;26356;-78
2022/08/03 10:08:23;;;;;;;0.53;0.53;;;50.10;20.50;;;;;;959369;145;26183;-78
2022/08/03 10:10:49;;;;;;;0.78;0.78;;;49.90;20.50;;;;;;961230;145;26191;-79
2022/08/03 10:13:16;;;;;;;0.70;0.70;;;49.60;20.60;;;;;;960988;145;26282;-78
2022/08/03 10:15:42;;;;;;;0.80;0.80;;;49.30;20.60;;;;;;959486;145;26295;-78
2022/08/03 10:18:09;;;;;;;1.30;0.80;;;49.00;20.60;;;;;;962411;145;26191;-79
2022/08/03 10:20:47;;;;;;;0.70;0.70;;;48.70;20.60;;;;;;961183;145;26239;-78
2022/08/03 10:23:14;;;;;;;1.00;0.88;;;48.30;20.70;;;;;;957149;145;26222;-78
2022/08/03 10:25:42;;;;;;;0.95;0.80;;;47.80;20.70;;;;;;960642;145;26266;-79
2022/08/03 10:28:07;;;;;;;0.93;0.93;;;47.40;20.80;;;;;;960913;145;26347;-78
2022/08/03 10:30:34;;;;;;;1.55;0.98;;;46.90;20.80;;;;;;959256;145;26251;-78
2022/08/03 10:33:06;;;;;;;1.07;1.07;;;46.40;20.30;;;;;;960719;145;26335;-78
2022/08/03 10:35:32;;;;;;;1.55;1.20;;;45.80;21.00;;;;;;959541;145;26348;-78
2022/08/03 10:37:59;;;;;;;0.98;0.98;;;45.20;21.20;;;;;;959080;145;26172;-78
2022/08/03 10:40:28;;;;;;;1.20;0.98;;;44.60;21.40;;;;;;957845;145;26342;-79
2022/08/03 10:42:55;;;;;;;1.10;1.10;;;43.90;21.70;;;;;;957795;145;26243;-78
2022/08/03 10:45:24;;;;;;;1.40;1.00;;;43.30;22.00;;;;;;960043;145;26275;-78
2022/08/03 10:47:50;;;;;;;1.07;1.00;;;42.80;22.20;;;;;;961849;145;26212;-78
2022/08/03 10:50:17;;;;;;;1.00;0.90;;;42.40;22.50;;;;;;957397;145;27374;-78
2022/08/03 10:53:00;;;;;;;1.27;1.17;;;42.00;22.60;;;;;;957333;148;28072;-78
2022/08/03 10:58:37;;;;;;;3.00;1.17;;;41.30;23.00;;;;;;957019;148;26356;-78
2022/08/03 11:01:07;;;;;;;1.50;1.40;;;41.00;23.40;;;;;;917737;154;26374;-80
2022/08/03 11:03:33;;;;;;;2.58;1.75;;;40.80;23.60;;;;;;955445;148;26398;-80
2022/08/03 11:06:17;;;;;;;1.60;1.47;;;40.60;23.60;;;;;;956982;148;28490;-80
2022/08/03 11:08:41;;;;;;;1.40;1.30;;;40.40;23.80;;;;;;946875;148;26230;-80
2022/08/03 11:11:17;;;;;;;1.70;1.40;;;40.30;23.80;;;;;;955682;148;26212;-79
2022/08/03 11:13:56;;;;;;;1.35;1.05;;;40.10;24.20;;;;;;956245;148;26216;-80
2022/08/03 11:16:22;;;;;;;1.95;1.40;;;39.80;24.00;;;;;;925884;153;26267;-80
2022/08/03 11:19:01;;;;;;;1.32;1.25;;;39.60;24.10;;;;;;955895;148;27362;-79
2022/08/03 11:21:51;;;;;;;1.22;1.20;;;39.40;24.50;;;;;;954110;148;27313;-79
2022/08/03 11:24:38;;;;;;;1.77;1.22;;;39.10;24.50;;;;;;956910;148;26249;-79
2022/08/03 11:27:17;;;;;;;1.27;1.20;;;39.00;24.60;;;;;;955287;148;26239;-80
2022/08/03 11:30:08;;;;;;;1.20;1.20;;;38.70;24.70;;;;;;953469;148;26381;-80
2022/08/03 11:32:40;;;;;;;1.22;1.22;;;38.50;25.40;;;;;;934841;152;27913;-80
2022/08/03 11:35:13;;;;;;;1.80;1.00;;;38.30;25.10;;;;;;933227;152;26286;-79
2022/08/03 11:37:58;;;;;;;3.05;1.12;;;38.20;25.30;;;;;;919371;153;28024;-80
2022/08/03 11:40:39;;;;;;;4.10;1.40;;;38.10;25.50;;;;;;922701;154;27519;-80
2022/08/03 11:43:09;;;;;;;1.72;1.25;;;38.10;25.60;;;;;;955652;148;27390;-80
2022/08/03 11:45:35;;;;;;;1.95;1.27;;;38.10;25.60;;;;;;923628;153;26378;-80
2022/08/03 11:48:02;;;;;;;1.27;1.22;;;38.10;25.80;;;;;;955245;148;27422;-80
2022/08/03 11:50:28;;;;;;;1.05;1.05;;;38.10;25.90;;;;;;920149;153;26265;-79
2022/08/03 11:52:55;;;;;;;1.87;1.32;;;38.20;26.00;;;;;;958533;145;27358;-79
2022/08/03 11:55:21;;;;;;;2.08;1.10;;;38.20;25.90;;;;;;957695;145;26339;-80
2022/08/03 11:57:48;;;;;;;2.00;1.12;;;38.20;25.90;;;;;;959949;145;26253;-79
2022/08/03 12:00:21;;;;;;;3.30;1.35;;;38.20;25.80;;;;;;961303;145;28359;-79
2022/08/03 12:02:56;;;;;;;1.32;1.22;;;38.20;25.80;;;;;;956573;145;26184;-79
2022/08/03 12:05:31;;;;;;;1.20;1.20;;;38.10;25.80;;;;;;960026;145;27310;-80
2022/08/03 12:07:58;;;;;;;1.35;1.25;;;38.00;25.80;;;;;;940593;148;26339;-80
2022/08/03 12:10:25;;;;;;;1.30;1.30;;;37.90;25.90;;;;;;959257;145;27417;-79
2022/08/03 12:12:57;;;;;;;1.17;1.10;;;37.80;26.00;;;;;;962064;145;27389;-79
2022/08/03 12:15:29;;;;;;;1.02;1.00;;;37.70;26.00;;;;;;958974;145;26336;-79
2022/08/03 12:17:56;;;;;;;0.90;0.90;;;37.70;26.20;;;;;;960077;145;26255;-80
2022/08/03 12:20:23;;;;;;;1.20;1.10;;;37.60;26.10;;;;;;959010;145;27410;-80
2022/08/03 12:22:49;;;;;;;1.32;1.22;;;37.50;26.20;;;;;;960985;145;27322;-79
2022/08/03 12:25:22;;;;;;;1.15;1.05;;;37.50;26.40;;;;;;960313;145;27308;-79
2022/08/03 12:27:48;;;;;;;1.00;1.00;;;37.40;26.40;;;;;;959139;145;27349;-79
2022/08/03 12:30:15;;;;;;;1.10;1.10;;;37.40;26.40;;;;;;960638;145;27412;-79
2022/08/03 12:32:42;;;;;;;1.37;1.27;;;37.40;26.50;;;;;;959832;145;27294;-79
2022/08/03 12:35:08;;;;;;;1.20;1.20;;;37.40;26.70;;;;;;958723;145;27337;-79
2022/08/03 12:37:35;;;;;;;1.20;1.20;;;37.30;26.60;;;;;;959810;145;26360;-79
2022/08/03 12:40:03;;;;;;;1.20;1.20;;;37.30;26.60;;;;;;959637;145;27353;-79
2022/08/03 12:42:34;;;;;;;1.10;1.10;;;37.30;26.70;;;;;;956117;145;27338;-80
2022/08/03 12:45:00;;;;;;;1.45;1.15;;;37.20;26.60;;;;;;957261;145;27328;-79
2022/08/03 12:47:27;;;;;;;1.00;1.00;;;37.20;26.70;;;;;;959855;145;27323;-79
2022/08/03 12:49:53;;;;;;;0.90;0.90;;;37.10;26.70;;;;;;961292;145;27311;-79
2022/08/03 12:52:20;;;;;;;1.32;1.20;;;37.10;26.80;;;;;;959785;145;27450;-80
2022/08/03 12:54:56;;;;;;;1.07;1.07;;;37.00;27.10;;;;;;957544;148;27429;-79
2022/08/03 12:57:22;;;;;;;4.05;1.72;;;36.90;27.00;;;;;;955226;148;27353;-80
2022/08/03 12:59:49;;;;;;;1.30;1.20;;;36.90;27.00;;;;;;914755;155;28154;-79
2022/08/03 13:02:16;;;;;;;1.30;1.20;;;36.80;27.10;;;;;;930892;152;27504;-79